Huvudsida
METAR-TAF:

METAR-TAF

Flygplatser :

Stockholm-Västerås flygplats

Västerås, Sverige

latitud: 59-35N, longitud: 016-38E, höjd: 6 m

Aktuellt väderrapport

Denna rapport gjordes för 20 minuter sedan, klockan 04:50 UTC
Vind 5 kt från väst/sydväst, varierande mellan syd/sydväst och väst
Temperatur 7°C
Fuktighet 81%
Tryck 1037 hPa
Sikt 10 km eller mer

METAR: ESOW 170450Z AUTO 24005KT 210V270 9999 OVC019/// 07/04 Q1037

Tid: 06:10 (05:10 UTC)

Väderprognos

Denna rapport gjordes för 17 timmar och 40 minuter sedan, klockan 11:30 UTC
Prognos gäller från 16 kl. 12 UTC till 16 kl. 15 UTC
Vind 8 kt från syd/sydväst
Sikt 10 km eller mer
Få moln på en höjd av 2000 ft

TAF: ESOW 161130Z 1612/1615 21008KT 9999 FEW020

Aktuella väderrapporter och prognoser från 4000 flygplatser (METAR- och TAF-rapporter).

De tillgängliga stationerna syns som gula och röda prickar på kartan.

För musen över prickarna för att se namnen på stationerna.

Klicka sedan för att få väderrapporter och prognoser.

För att ändra kartan: Klicka på de gröna knapparna med ett svart kors på för att zooma in; den gröna knappen med ett streck på för att zooma ut; eller på de gröna pilarna för angränsande kartor.


METAR-TAF: